Select your language:
Hier könnte ihre Werbung stehen!  
  Cat:   Country:   Avg.Speed:   Category type:   
Date: 02.05.2026 Send Link
Event: 5ª Malcesine Baldo Trail (ITA) More details of this race.
Distance: 52km trail race All-time results of this event.
Finishers: 242 (199 M, 43 F) Multiple Finishers.
Ranking eligible: No
Source: Link (Source at time of data acquisition.)
Recorded by: Marcello Spreafico     05.05.2026 16:30
 
242 search results 
Rank Performance Original name
Surname, first name
Club Nat. YOB M/F Rank M/F Cat Cat. Rank Avg.Speed km/h Age graded performance
1 5:45:07 h   Valenti, Remy Run Card   FRA  1989 M 1 M35  1 9.040 5:42:03 h
2 5:47:57 h   Freschi, Alberto Atletica Dolomiti Friu...   ITA  1993 M 2 M23  1 8.967 5:47:53 h
3 5:55:19 h   Zanoner, Marco Run Card   ITA  1995 M 3 M23  2 8.781 5:55:19 h
4 6:03:57 h   De Salvador, Marco Spirito Trail ASD   ITA  1989 M 4 M35  2 8.573 6:00:43 h
5 6:06:22 h   Schnitzer, Franz   ITA  1980 M 5 M45  1 8.516 5:41:08 h
6 6:06:53 h   Coradazzi, Thomas ASD Chiarcosso - Help ...   ITA  2000 M 6 M23  3 8.504 6:06:53 h
7 6:07:13 h   Bellini, Marco POL. Unione 90   ITA  1987 M 7 M35  3 8.496 5:58:29 h
8 6:24:05 h   Nuti, Marco Run Card   ITA  1992 M 8 M23  4 8.123 6:23:38 h
9 6:27:54 h   Mazzola, Francesco A.S.D. New Life   ITA  1987 M 9 M35  4 8.043 6:18:41 h
10 6:27:54 h   Coban, Ion Atletica Corriferrara   ITA  1981 M 9 M40  1 8.043 6:04:12 h
11 6:27:54 h   Paladin, Matteo Run Card   ITA  1993 M 9 M23  5 8.043 6:27:27 h
12 6:28:43 h   Sighel, Luca Atletica Valle DI Cembra   ITA  1977 M 12 M45  2 8.026 5:52:53 h
13 6:28:44 h   Gonzo, Matteo Run Card   ITA  1984 M 13 M40  2 8.026 6:14:05 h
14 6:32:40 h   Cornacchini, Giovanni Run Card   ITA  1994 M 14 M23  6 7.946 6:32:36 h
15 6:38:22 h   Assolari, Luca Team Gaaren Beahero SS...   ITA  1994 M 15 M23  7 7.832 6:38:22 h
16 6:40:43 h   Chiaretto, Devid 1to1 Sport ASD   ITA  1975 M 16 M50  1 7.786 5:57:32 h
17 6:44:44 h   Orlandi, Lorenzo Run Card   ITA  1990 M 17 M35  5 7.709 6:42:31 h
18 6:45:03 h   Dan, Davide Emme Running Team   ITA  1990 M 18 M35  6 7.703 6:42:50 h
19 6:47:23 h   Perobello, Alberto Libertas Vallesabbia   ITA  2002 M 19 M23  8 7.659 6:47:23 h
20 6:55:57 h   Pannier, Markus Run Card   GER  1994 M 20 M23  9 7.501 6:55:53 h
21 6:58:39 h   Gallizioli, Simone A.S.D. La Recastello   ITA  1998 M 21 M23  10 7.453 6:58:39 h
22 6:58:57 h   Helmreich, Carina Ultratrailrunning Erla...   GER  1996 F 1 W23  1 7.447 6:58:57 h
23 7:07:10 h   Becchetti, Michael ASD 3Santi Nave   ITA  1996 M 22 M23  11 7.304 7:07:10 h
24 7:08:03 h   Debortoli, Federico XC Team ASD   ITA  1994 M 23 M23  12 7.289 7:08:03 h
25 7:09:46 h   Zaffaroni, Stefano G.A.P. Saronno   ITA  1990 M 24 M35  7 7.260 7:07:25 h
26 7:12:15 h   Erhart, Caroline-Claudia Run Card   SUI  1994 F 2 W23  2 7.218 7:12:15 h
27 7:13:45 h   Ciobanu, Svetlana ASD.Passport   ITA  1984 F 3 W40  1 7.193 7:00:50 h
28 7:13:59 h   Ohr, Andreas Run Card   GER  1988 M 25 M35  8 7.189 7:06:11 h
29 7:16:37 h   Chabbal, Paul   FRA  2002 M 26 M23  13 7.146 7:16:37 h
30 7:16:59 h   Giovinetti, Alessandro UP & Down Piacenza Nat...   ITA  1990 M 27 M35  9 7.140 7:13:06 h
31 7:18:10 h   Reoletti, Marco G.S. Montegargnano   ITA  1986 M 28 M40  3 7.121 7:04:51 h
32 7:20:08 h   Berlanda, Gianni Atletica Valle DI Cembra   ITA  1966 M 29 M55  1 7.089 6:01:53 h
33 7:21:18 h   Wolf, Michaela Run Card   GER  1987 F 4 W35  1 7.070 7:15:13 h
34 7:22:49 h   Brighenti, Marco Polisportiva Rubiera   ITA  1980 M 30 M45  3 7.046 6:52:19 h
35 7:24:19 h   Simi, Gabriele S.A. Valchiese   ITA  1989 M 31 M35  10 7.022 7:18:33 h
36 7:24:43 h   Guidolin, Alberto Emme Running Team   ITA  1988 M 32 M35  11 7.016 7:16:43 h
37 7:29:54 h   Antonelli, Enrico VRM Team ASD   ITA  1975 M 33 M50  2 6.935 6:37:57 h
38 7:32:12 h   Saburov, Ivan (Сабуров Иван) Run Card   RUS  1990 M 34 M35  12 6.900 7:28:11 h
39 7:33:50 h   Brugnetti, Gabriele Run Card   ITA  1995 M 35 M23  14 6.875 7:33:50 h
40 7:33:50 h   Zanchi, Silvia Run Card   ITA  1984 F 5 W40  2 6.875 7:20:19 h
41 7:38:02 h   Tavana, Roberto Diego ASD 3Santi Nave   ITA  1986 M 36 M40  4 6.812 7:24:07 h
42 7:38:23 h   Menegoni, Gabriele Crusher Running ASD   ITA  1991 M 37 M23  15 6.807 7:37:04 h
43 7:39:58 h   Zordan, Marco Run Card   ITA  1992 M 38 M23  16 6.783 7:39:25 h
44 7:40:32 h   Bombieri, Marco Bolf Team A.S.D   ITA  1996 M 39 M23  17 6.775 7:40:32 h
45 7:40:53 h   Folchini, Alberto Garda Running A.S.D.   ITA  1984 M 40 M40  5 6.770 7:23:31 h
46 7:41:36 h   Bertoni, Mirco G.S. Montegargnano   ITA  1971 M 41 M55  2 6.759 6:33:53 h
47 7:42:27 h   Barzaghi, Luca Run Card   ITA  1984 M 42 M40  6 6.747 7:25:01 h
48 7:46:37 h   Reiser, Marie-Sophie Run Card   GER  1995 F 6 W23  3 6.686 7:46:37 h
49 7:49:26 h   Fortuna, Federico Angelo Run Card   ITA  1980 M 43 M45  4 6.646 7:17:06 h
50 7:50:01 h   Della Rovere, Andrea G.S.A. Cometa   ITA  1981 M 44 M40  7 6.638 7:21:18 h
51 7:51:25 h   Bertocchi, Lorenzo C.U.S. Bologna A.S.D.   ITA  1991 M 45 M23  18 6.618 7:50:03 h
52 7:51:45 h   Righi, Dario ATL. Reggio Asd   ITA  1976 M 46 M45  5 6.614 7:04:35 h
53 7:52:00 h   Salvati, Luca G.S. Mario Corti 1959   ITA  1994 M 47 M23  19 6.610 7:52:00 h
54 7:52:53 h   Monteleone, Alessandro Run Card   ITA  1985 M 48 M40  8 6.598 7:38:31 h
55 7:53:08 h   Sale, Ivita   LAT  1987 F 7 W35  2 6.594 7:46:37 h
56 7:53:45 h   Sacchi, Sinuhe Alex Run Card   SUI  1989 M 49 M35  13 6.586 7:47:36 h
57 7:55:15 h   Dal Sasso, Alberto Run Card   ITA  1987 M 50 M35  14 6.565 7:43:57 h
58 7:57:28 h   Andreatta, Emiliano Lagarina Crus Team   ITA  1978 M 51 M45  6 6.534 7:17:11 h
59 7:57:35 h   Ferrari, Alex Run Card   ITA  1983 M 52 M40  9 6.533 7:35:52 h
60 7:58:18 h   Perri, Christian G.S. Bondo   ITA  1998 M 53 M23  20 6.523 7:58:18 h
61 8:02:23 h   Borghi, Matteo Q-Box S.S.D. A R.L.   ITA  1992 M 54 M23  21 6.468 8:01:49 h
62 8:03:03 h   Zigliani, Severino Bike & Run   ITA  1994 M 55 M23  22 6.459 8:03:03 h
63 8:03:19 h   Pieroni, Lorenzo Never Stop Run A.S.D.   ITA  1977 M 56 M45  7 6.455 7:18:46 h
64 8:04:50 h   Bovo, Matteo A.S.D. Verona Trail Ru...   ITA  1993 M 57 M23  23 6.435 8:04:45 h
65 8:06:17 h   Conti, Gabriele Team Gaaren Beahero SS...   ITA  1994 M 58 M23  24 6.416 8:06:12 h
66 8:09:36 h   Gilder, Ben   GBR  1994 M 59 M23  25 6.373 8:09:36 h
67 8:10:21 h   Coccoli, Daniele Sport&fitness SRL SSD   ITA  1998 M 60 M23  26 6.363 8:10:21 h
68 8:10:45 h   Danzi, Davide Run Card   ITA  1990 M 61 M35  15 6.358 8:08:04 h
69 8:11:12 h   Rieger, Julia   GER  1995 F 8 W23  4 6.352 8:11:12 h
70 8:13:19 h   Bastianello, Gianluca POL. Joy Club Fuel To Run   ITA  1988 M 62 M35  16 6.325 8:06:55 h
71 8:14:57 h   Masciadri, Stefano O.S.A. Org.Sportiva Al...   ITA  1967 M 63 M55  3 6.304 6:46:57 h
72 8:15:10 h   Carolo, Maddalena ATL.Vicentina   ITA  1986 F 9 W35  3 6.301 8:06:01 h
73 8:17:04 h   Gaggiotti, Marco Team Gaaren Beahero SS...   ITA  1975 M 64 M50  3 6.277 7:19:40 h
74 8:19:37 h   Sgubbi, Stefano Leopodistica   ITA  1984 M 65 M40  10 6.245 8:00:47 h
75 8:21:12 h   Ferrari, Marco Passo Capponi ASD   ITA  1981 M 66 M40  11 6.225 7:50:35 h
76 8:21:53 h   Cavallo, Pietro Run Card   ITA  2004 M 67 MU23  1 6.217 8:21:53 h
77 8:22:02 h   Zandonai, Matteo Run Card   ITA  1993 M 68 M23  27 6.215 8:21:56 h
78 8:24:32 h   Salucci, Riccardo G.P.A. San Marino   SMR  2001 M 69 M23  28 6.184 8:24:32 h
79 8:28:55 h   Bertaso, Amedeo Run Card   ITA  1996 M 70 M23  29 6.131 8:28:55 h
80 8:29:13 h   Linkowski, Michal Run Card   POL  1977 M 71 M45  8 6.127 7:38:18 h
81 8:29:36 h   Buelli, Mattia Run Card   ITA  1990 M 72 M35  17 6.122 8:26:48 h
82 8:30:23 h   Paris, Roberto Run Card   ITA  1979 M 73 M45  9 6.113 7:51:18 h
83 8:31:55 h   Juda, Witold   POL  1974 M 74 M50  4 6.095 7:32:48 h
84 8:34:25 h   Natali, Sarah Mypace Running Team   ITA  1984 F 10 W40  3 6.065 8:19:06 h
85 8:36:31 h   Galvani, Stefano A.S.D. Team Km Sport   ITA  1970 M 75 M55  4 6.040 7:16:46 h
86 8:37:26 h   Ros, Mirco Gruppo Atletica Vedela...   ITA  1971 M 76 M50  5 6.030 7:25:34 h
87 8:38:26 h   Alberdi Mujika, Ion Gurutz   ESP  1980 M 77 M45  10 6.018 8:02:43 h
88 8:39:34 h   Tvildiani, Giuli Run Card   GEO  1983 F 11 W40  4 6.005 8:20:37 h
89 8:41:58 h   Munari, Matteo Runners Team Zane'   ITA  1977 M 78 M45  11 5.977 7:53:51 h
90 8:43:00 h   Potrebujes, Nejc   SLO  1987 M 79 M35  18 5.966 8:33:36 h
91 8:44:27 h   Menegatti, Andrea ASD Prato Promozione   ITA  1987 M 80 M35  19 5.949 8:35:01 h
92 8:44:37 h   Giovannini, Giacomo Run Card   ITA  1983 M 81 M40  12 5.947 8:20:45 h
93 8:44:48 h   Enders, Patrick   GER  1978 M 82 M45  12 5.945 8:00:31 h
94 8:46:17 h   Desproges, Lucas   FRA  2004 M 83 MU23  2 5.928 8:46:17 h
95 8:46:49 h   Nonni, Marco United Trail&Running   ITA  1985 M 84 M40  13 5.922 8:26:58 h
96 8:47:21 h   Del Panta, Niccolo Run Card   ITA  1985 M 85 M40  14 5.916 8:27:29 h
97 8:47:36 h   Fonso, Enrico Runcard   ITA  1985 M 86 M40  15 5.914 8:31:34 h
98 8:47:45 h   Settin, Nicola Run Card   ITA  1993 M 87 M23  30 5.912 8:47:39 h
99 8:48:19 h   Miotti, Francesco Facerunners - Asd   ITA  1992 M 88 M23  31 5.906 8:47:41 h
100 8:49:00 h   Giacomini, Gianluca Mattia Bione Trailers Team   ITA  1983 M 89 M40  16 5.898 8:24:56 h
101 8:49:01 h   Rossini, Ivano Runners Salo'   ITA  1976 M 90 M45  13 5.898 7:56:07 h
102 8:52:26 h   Mariotti, Severino U.S. Malonno   ITA  1958 M 91 M65  1 5.860 6:40:30 h
103 8:53:09 h   Pedrotti, Paolo Run Card   ITA  1989 M 92 M35  20 5.852 8:48:25 h
104 8:53:24 h   Kita, Ihor Run Card   UKR  1992 M 93 M23  32 5.849 8:52:46 h
105 8:53:46 h   Bernardi, Dania ASD Gruppo Podistico T...   ITA  1976 F 12 W45  1 5.845 7:59:26 h
106 8:54:03 h   Berigazzi, Matteo ATL. Viadana   ITA  1977 M 94 M45  14 5.842 8:00:39 h
107 8:55:32 h   Gaddo, Giovanni Emme Running Team   ITA  1982 M 95 M40  17 5.826 8:27:00 h
108 8:55:57 h   Samain, Olivier Team MUD & Snow ASD   ITA  1964 M 96 M60  1 5.821 7:12:22 h
109 8:57:28 h   Dal Pozzo, Antonella LA Fulminea Running Te...   ITA  1989 F 13 W35  4 5.805 8:53:59 h
110 8:59:37 h   Storti, Sebastiano Facerunners - Asd   ITA  1989 M 97 M35  21 5.782 8:54:49 h
111 8:59:45 h   Tettamanti, Luca Run Card   ITA  1994 M 98 M23  33 5.780 8:59:45 h
112 8:59:52 h   Jessiman, Celia Mary Run Card   USA  2001 F 14 W23  5 5.779 8:59:52 h
113 9:00:50 h   Dosselli, Francesco ATL. Gavardo '90 Lib.   ITA  1976 M 99 M45  15 5.769 8:06:45 h
114 9:00:59 h   Quaini, Marco Sport&fitness SRL SSD   ITA  1981 M 100 M45  16 5.767 8:23:43 h
115 9:01:20 h   Barbieri, Cesare ASD Gruppo Podistico T...   ITA  1976 M 101 M45  17 5.764 8:07:12 h
116 9:02:33 h   Belotti, Davide Maria Canto DI Corsa   ITA  1977 M 102 M45  18 5.751 8:12:32 h
117 9:03:09 h   Bertolo, Silvia Gruppo Atletica Vedela...   ITA  1978 F 15 W45  2 5.744 8:19:42 h
118 9:03:09 h   Moschi, Sofia Gruppo Atletica Vedela...   ITA  1989 F 15 W35  5 5.744 8:59:38 h
119 9:03:10 h   Vidoli, Gabriele G.S. Bondo   ITA  2002 M 103 M23  34 5.744 9:03:10 h
120 9:06:04 h   Burkart, Erik   GER  1981 M 104 M40  18 5.714 8:32:43 h
121 9:07:21 h   Podbevsek, Maja   SLO  1991 F 17 W23  6 5.700 9:06:19 h
122 9:12:18 h   Delugan, Efrem US Cornacci Tesero ASD   ITA  1971 M 105 M50  6 5.649 7:55:36 h
123 9:12:21 h   Vagiotini, Silvia Facerunners - Asd   ITA  1987 F 18 W35  6 5.649 9:02:08 h
124 9:12:36 h   Montino, Marco Run Card   ITA  1991 M 106 M23  35 5.646 9:11:00 h
125 9:14:02 h   Ricci, Mattia Run Card   ITA  1996 M 107 M23  36 5.631 9:14:02 h
126 9:14:11 h   Brugnara, Cristina Run Card   ITA  1979 F 19 W45  3 5.630 8:35:27 h
127 9:15:28 h   Rigolin, Edoardo Run Card   ITA  1981 M 108 M40  19 5.617 8:41:32 h
128 9:15:31 h   Heilingloh, Josephine _   GER  1995 F 20 W23  7 5.616 9:15:31 h
129 9:15:38 h   Ghezzi, Michela O.S.A. Org.Sportiva Al...   ITA  1985 F 21 W40  5 5.615 9:02:25 h
130 9:15:38 h   Redaelli, Manuele O.S.A. Org.Sportiva Al...   ITA  1977 M 109 M45  19 5.615 8:20:05 h
131 9:16:17 h   Doneda, Mauro ATL. Castel Rozzone   ITA  1969 M 110 M55  5 5.609 7:50:24 h
132 9:16:18 h   Delfini, Alessandro Time for Run   ITA  1982 M 111 M40  20 5.608 8:46:39 h
133 9:16:36 h   Dosch, Damian   SUI  1978 M 112 M45  20 5.605 8:25:17 h
134 9:16:49 h   Danieli, Giacomo Facerunners - Asd   ITA  1992 M 113 M23  37 5.603 9:16:09 h
135 9:17:49 h   Tosi, Filippo Run Card   ITA  1977 M 114 M45  21 5.593 8:26:24 h
136 9:18:55 h   Marconi, Luca Kino Mana   ITA  1978 M 115 M45  22 5.582 8:31:45 h
137 9:20:29 h   Nani, Beatrice Run Card   ITA  1983 F 22 W40  6 5.567 8:55:57 h
138 9:22:09 h   Marabottini, Daniele A.S.D. Esercito-15 Cer...   ITA  1987 M 116 M35  22 5.550 9:12:02 h
139 9:23:07 h   Gräfe, Jens   GER  1976 M 117 M45  23 5.541 8:26:49 h
140 9:24:19 h   Bellorti, Manuel Run Card   ITA  2001 M 118 M23  38 5.529 9:24:19 h
141 9:24:38 h   Baldo, Fabio C.C.R.Sport. Alpini Tr...   ITA  1975 M 119 M50  7 5.526 8:23:46 h
142 9:25:26 h   Becchio, Andrea Run Card   ITA  1983 M 120 M40  21 5.518 8:59:43 h
143 9:27:48 h   Lacchini, Mirko Run Card   ITA  1971 M 121 M50  8 5.495 8:08:56 h
144 9:28:22 h   D'Emanuele, Samuel C.U.S. Verona Sez. Atl...   ITA  1993 M 122 M23  39 5.489 9:28:16 h
145 9:28:30 h   Laimer, Elisabeth ASV Telmekom Team Sued...   ITA  1968 F 23 W55  1 5.488 7:34:04 h
146 9:29:37 h   Fiorenzo, Vincenzo GS la Piave 2000   ITA  1971 M 123 M55  6 5.477 8:06:04 h
147 9:30:49 h   Hinz, Emanuela   GER  1985 F 24 W40  7 5.466 9:17:14 h
148 9:30:54 h   Pavko, Martin Run Card   SVK  1997 M 124 M23  40 5.465 9:30:54 h
149 9:31:24 h   Di Giacomo, Roberto Run Card   ITA  1969 M 125 M55  7 5.460 8:03:11 h
150 9:32:17 h   Cavazzuti, Silvia Run Card   ITA  1974 F 25 W50  1 5.452 8:21:23 h
151 9:33:00 h   Zambelli, Davide Run Card   ITA  1959 M 126 M65  2 5.445 7:15:29 h
152 9:33:48 h   Barin, Michele Run Card   ITA  1980 M 127 M45  24 5.437 8:54:16 h
153 9:35:01 h   Sarrau, Arthur   FRA  2004 M 128 MU23  3 5.426 9:35:01 h
154 9:39:28 h   Tartari, Dimitri Passo Capponi ASD   ITA  1978 M 129 M45  25 5.384 8:50:34 h
155 9:41:26 h   Avanzini, Stefano Run Card   ITA  1978 M 130 M45  26 5.366 8:52:22 h
156 9:42:33 h   Hauner, Christoph   GER  1993 M 131 M23  41 5.356 9:42:27 h
157 9:46:30 h   Scramoncin, Milo Run Card   ITA  1991 M 132 M23  42 5.320 9:44:48 h
158 9:47:28 h   Koudelkova, Katerina   CZE  1995 F 26 W23  8 5.311 9:47:28 h
159 9:47:30 h   Maffeis, Emilia Team Gaaren Beahero SS...   ITA  1989 F 27 W35  7 5.311 9:43:41 h
160 9:47:39 h   Stangl, Dieter   AUT  1986 M 133 M35  23 5.309 9:33:40 h
161 9:50:03 h   Panegalli, Nicholas Run Card   ITA  1996 M 134 M23  43 5.288 9:50:03 h
162 9:50:25 h   Sjoberg, Charlotta   SWE  1973 F 28 W50  2 5.284 8:30:47 h
163 9:52:23 h   Tesarova, Vladislava Cesky Bezecky Klub   CZE  1979 F 29 W45  4 5.267 9:10:59 h
164 9:53:59 h   Colombo, Dario Meetfit   ITA  1978 M 135 M45  27 5.253 9:03:52 h
165 9:54:44 h   Varalta, Alberto Traguardo Volante Racing   ITA  1993 M 136 M23  44 5.246 9:54:02 h
166 9:54:48 h   Pizzato, Filippo Run Card   ITA  1972 M 137 M50  9 5.245 8:36:50 h
167 9:55:13 h   Zanlucchi, Matteo Run Card   ITA  1981 M 138 M40  22 5.242 9:18:51 h
168 9:55:25 h   Bolzon, Michael Run Card   ITA  1997 M 139 M23  45 5.240 9:55:25 h
169 9:56:35 h   Basso, Cinzia VRM Team ASD   ITA  1981 F 30 W40  8 5.230 9:25:41 h
170 9:57:46 h   Supple, Louis   GBR  1988 M 140 M35  24 5.219 9:50:00 h
171 9:58:55 h   Clemente, Andrea Run Card   ITA  1976 M 141 M45  28 5.209 8:59:02 h
172 10:01:17 h   Bianchi, Isidoro ASD GSA Sovere Atletica   ITA  1963 M 142 M60  2 5.189 8:00:22 h
173 10:02:44 h   Gabilondo Garmendia, Enekoitz   ESP  1973 M 143 M50  10 5.176 8:48:25 h
174 10:04:58 h   Polese, Mattia Run Card   ITA  1995 M 144 M23  46 5.157 10:04:58 h
175 10:05:02 h   Baldessarini, Paolo Lagarina Crus Team   ITA  1966 M 145 M55  8 5.157 8:17:28 h
176 10:05:24 h   Ruggeri, Giona Run Card   ITA  1997 M 146 M23  47 5.154 10:05:24 h
177 10:05:40 h   Pierobon, Sergio ATL. Verbano   ITA  1967 M 147 M55  9 5.151 8:22:43 h
178 10:07:05 h   Stefani, Alessio ASD Faro Formignana   ITA  1980 M 148 M45  29 5.139 9:25:16 h
179 10:09:29 h   Mosconi, Paola A.S.D. Baudenasca   ITA  1974 F 31 W50  3 5.119 8:53:59 h
180 10:09:38 h   Nienhuis, Lennard   NED  2002 M 149 M23  48 5.118 10:09:38 h
181 10:11:04 h   Calcagnile, Giuseppe GS Avis Treviglio G.Br...   ITA  1964 M 150 M60  3 5.106 8:12:57 h
182 10:12:24 h   Gritti, Marco Giuseppe Runners Bergamo   ITA  1969 M 151 M55  10 5.095 8:37:51 h
183 10:12:45 h   Alonso Herrera, Jesus Aaron Run Card   ESP  1980 M 152 M45  30 5.092 9:30:32 h
184 10:16:32 h   Refolo, Umberto Carvico Skyrunning   ITA  1969 M 153 M55  11 5.061 8:41:21 h
185 10:21:51 h   Lehmann, Tobias   GER  1992 M 154 M23  49 5.017 10:20:03 h
186 10:26:51 h   Godano, Gianluca Maremontana A.S.D.   ITA  1985 M 155 M40  23 4.977 10:07:48 h
187 10:26:51 h   Righetti, Edoardo A.S.D. Team Km Sport   ITA  1992 M 155 M23  50 4.977 10:26:06 h
188 10:26:51 h   Zuin, Marco A.S.D. Team Km Sport   ITA  1989 M 155 M35  25 4.977 10:18:43 h
189 10:28:36 h   Rocha, Matteo Impossible Target   ITA  1995 M 158 M23  51 4.963 10:28:36 h
190 10:29:03 h   Müller, Annabel   GER  1978 F 32 W45  5 4.960 9:32:00 h
191 10:37:03 h   Donadi, Alessandro Run Card   ITA  1968 M 159 M55  12 4.898 8:53:44 h
192 10:41:54 h   Pandini, Michele Run Card   ITA  1965 M 160 M60  4 4.861 8:42:46 h
193 10:42:14 h   Bilbao Beraza, Eduardo   ESP  1972 M 161 M50  11 4.858 9:18:03 h
194 10:44:00 h   Caleffi, Luca Run Card   ITA  1975 M 162 M50  12 4.845 9:34:35 h
195 10:44:40 h   Palini, Daniele Free-Zone   ITA  1982 M 163 M40  24 4.840 10:05:17 h
196 10:44:54 h   Pavanello, Valentina Amatori Atl.Chirignago   ITA  1972 F 33 W50  4 4.838 9:03:36 h
197 10:44:55 h   Finotello, Carlotta Amatori Atl.Chirignago   ITA  1972 F 34 W50  5 4.838 9:10:46 h
198 10:44:58 h   Persegani, Silvia Runtome ASD   ITA  1980 F 35 W45  6 4.837 10:05:57 h
199 10:46:02 h   van Haren, Ruben   NED  1994 M 164 M23  52 4.829 10:46:02 h
200 10:46:23 h   Amigoni, Marco Run Card   ITA  1976 M 165 M45  31 4.827 9:41:45 h
201 10:47:09 h   Beretta, Emanuele Medirun   ITA  1967 M 166 M55  13 4.821 8:52:06 h
202 10:47:34 h   Ewald, Björn   GER  1975 M 167 M50  13 4.818 9:32:47 h
203 10:49:24 h   Trevisan, Matteo Gruppo Atletica Vedela...   ITA  1977 M 168 M45  32 4.804 9:49:32 h
204 10:50:12 h   Dell'Aglio, Michele Vicenza Marathon   ITA  1973 M 169 M50  14 4.799 9:30:02 h
205 10:50:41 h   Odolini, Mauro ATL. Gavardo '90 Lib.   ITA  1971 M 170 M50  15 4.795 9:20:19 h
206 10:50:51 h   Gavazzi, Laura C.U.S. Parma   ITA  1978 F 36 W45  7 4.794 9:58:47 h
207 10:52:14 h   Granaiola, Alberto Sport Race A.S.D.   ITA  1980 M 171 M45  33 4.784 10:07:18 h
208 10:53:33 h   Pellacani, Luca ASD 3'.30'' Team   ITA  1978 M 172 M45  34 4.774 9:58:24 h
209 10:55:45 h   Buffoli, Rosa Maruska Run Card EPS   ITA  1973 F 37 W50  6 4.758 9:27:18 h
210 10:56:28 h   Fanoni, Marco Run Card   ITA  1974 M 173 M50  16 4.753 9:40:39 h
211 10:57:01 h   Urban, Ladislav   CZE  1976 M 174 M45  35 4.749 9:51:19 h
212 10:57:02 h   Magoni, Davide ASD GSA Sovere Atletica   ITA  1972 M 175 M50  17 4.749 9:25:47 h
213 10:57:53 h   Massa, Luigi U.S. La Sportiva   ITA  1972 M 176 M50  18 4.742 9:31:39 h
214 10:58:07 h   Hoefer, Mads   GER  1997 M 177 M23  53 4.741 10:58:07 h
215 10:58:07 h   Zwecker, Bence   HUN  1998 M 177 M23  53 4.741 10:58:07 h
216 10:58:08 h   Ryde, Adam   SWE  1996 M 179 M23  55 4.741 10:58:08 h
217 10:58:12 h   Giudici, Alberto Run Card   ITA  1970 M 180 M55  14 4.740 9:21:39 h
218 11:03:23 h   Giusti, Barbara Running Prealpino ASD   ITA  1969 F 38 W55  2 4.703 9:04:31 h
219 11:03:23 h   Braghini, Danilo Bione Trailers Team   ITA  1964 M 181 M60  5 4.703 8:55:10 h
220 11:05:48 h   Giuffrida, Giuseppe Running Club Venezia A...   ITA  1983 M 182 M40  25 4.686 10:35:31 h
221 11:06:42 h   Rosenoern, Charlotte   DEN  1982 F 39 W40  9 4.680 10:37:30 h
222 11:08:15 h   Vorobev, Denis   RUS  1980 M 183 M45  36 4.669 10:17:04 h
223 11:08:30 h   Gannon, Kyle   USA  1991 M 184 M23  56 4.667 11:06:34 h
224 11:17:48 h   Lassovsky, Leon Antonio   USA  1981 M 185 M40  26 4.603 10:36:24 h
225 11:19:24 h   Zambelli Rain, Riccardo Run Card   ITA  1975 M 186 M50  19 4.592 10:06:10 h
226 11:21:36 h   Badini, Oleg Nicola Run Card   ITA  2003 M 187 MU23  4 4.577 11:21:36 h
227 11:21:53 h   Ferrari, Marco ASD Valdalpone   ITA  1966 M 188 M55  15 4.576 9:20:39 h
228 11:25:45 h   Gremoli, Marianna Polisportiva Ellera ASD   ITA  1976 F 40 W45  8 4.550 10:15:57 h
229 11:27:32 h   Rauchhaupt, Sven   GER  1973 M 189 M50  20 4.538 9:57:24 h
230 11:27:32 h   Frank, Kathi   GER  1981 F 41 W45  9 4.538 10:45:57 h
231 11:27:32 h   Damm, Uta   GER  1971 F 41 W50  7 4.538 9:39:32 h
232 11:28:12 h   Plebani, Nicolo Run Card   ITA  1990 M 190 M35  26 4.534 11:24:25 h
233 11:29:08 h   Rigodanza, Patrizio Run Card   ITA  1958 M 191 M65  3 4.527 8:38:22 h
234 11:33:35 h   Cavaldoro, Flavio Running Club Venezia A...   ITA  1967 M 192 M55  16 4.498 9:35:41 h
235 11:33:48 h   Perali, Riccardo Run Card   ITA  1995 M 193 M23  57 4.497 11:33:48 h
236 11:33:48 h   Cavalleri, Elisa Run Card   ITA  1996 F 43 W23  9 4.497 11:33:48 h
237 11:34:35 h   Tinazzo, Danny Run Card   ITA  1990 M 194 M35  27 4.492 11:30:46 h
238 11:36:45 h   Bilotta, Davide Time for Run   ITA  1981 M 195 M40  27 4.478 10:54:11 h
239 11:40:19 h   Cason, Andrea Banana Team ASD   ITA  1979 M 196 M45  37 4.455 10:46:41 h
240 11:52:44 h   Hortopan, Jeanin Ilie Run Card   ITA  1976 M 197 M45  38 4.378 10:41:28 h
241 11:53:33 h   Pierobon, Loris Run Card   ITA  1989 M 198 M35  28 4.373 11:47:12 h
242 11:53:36 h   Cervellera, Davide Ostuni Runner'S   ITA  1988 M 199 M35  29 4.372 11:44:20 h